Aviation Digital Data Service (ADDS)

Output produced by METARs form (1411 UTC 28 January 2015)
found at http://www.aviationweather.gov/adds/metars/
 
KALB 281349Z 2814/2912 34011KT P6SM VCSH SCT035 BKN060 
     FM281600 32010KT P6SM SCT035 BKN100 
     FM282200 32005KT P6SM SCT250